Time,TemperatureF,DewpointF,PressureIn,WindDirection,WindDirectionDegrees,WindSpeedMPH,WindSpeedGustMPH,Humidity,HourlyPrecipIn,Conditions,Clouds,dailyrainin,SoftwareType,DateUTC
2013-09-19 00:04:00,74.2,69.4,29.88,South,176,3.0,3.0,85,0.00,,,0.00,Wunderground v.1.15,2013-09-19 05:04:00,
2013-09-19 00:09:00,74.2,69.4,29.88,South,171,5.0,6.0,85,0.00,,,0.00,Wunderground v.1.15,2013-09-19 05:09:00,
2013-09-19 00:15:00,74.2,69.4,29.88,SSW,195,0.0,4.0,85,0.00,,,0.00,Wunderground v.1.15,2013-09-19 05:15:00,
2013-09-19 00:20:00,74.2,69.4,29.88,SSW,200,3.0,3.0,85,0.00,,,0.00,Wunderground v.1.15,2013-09-19 05:20:00,
2013-09-19 00:26:00,74.0,69.2,29.88,SSE,161,6.0,6.0,85,0.00,,,0.00,Wunderground v.1.15,2013-09-19 05:26:00,
2013-09-19 00:32:00,74.0,69.2,29.88,SSE,151,2.0,3.0,85,0.00,,,0.00,Wunderground v.1.15,2013-09-19 05:32:00,
2013-09-19 00:38:00,74.0,69.2,29.88,South,174,8.0,8.0,85,0.00,,,0.00,Wunderground v.1.15,2013-09-19 05:38:00,
2013-09-19 00:44:00,74.0,69.2,29.88,South,189,6.0,8.0,85,0.00,,,0.00,Wunderground v.1.15,2013-09-19 05:44:00,
2013-09-19 00:50:00,74.0,69.2,29.88,SSE,164,8.0,8.0,85,0.00,,,0.00,Wunderground v.1.15,2013-09-19 05:50:00,
2013-09-19 00:56:00,73.9,69.1,29.88,South,172,2.0,8.0,85,0.00,,,0.00,Wunderground v.1.15,2013-09-19 05:56:00,
2013-09-19 01:02:00,73.9,69.1,29.88,SSE,164,5.0,5.0,85,0.00,,,0.00,Wunderground v.1.15,2013-09-19 06:02:00,
2013-09-19 01:08:00,73.7,68.9,29.88,SW,215,0.0,5.0,85,0.00,,,0.00,Wunderground v.1.15,2013-09-19 06:08:00,
2013-09-19 01:14:00,73.7,68.9,29.88,South,169,6.0,7.0,85,0.00,,,0.00,Wunderground v.1.15,2013-09-19 06:14:00,
2013-09-19 01:20:00,73.7,68.9,29.88,SSE,155,9.0,9.0,85,0.00,,,0.00,Wunderground v.1.15,2013-09-19 06:20:00,
2013-09-19 01:26:00,73.5,68.7,29.88,South,185,0.0,9.0,85,0.00,,,0.00,Wunderground v.1.15,2013-09-19 06:26:00,
2013-09-19 01:31:00,73.5,68.7,29.88,SSW,199,6.0,11.0,85,0.00,,,0.00,Wunderground v.1.15,2013-09-19 06:31:00,
2013-09-19 01:37:00,73.5,68.7,29.88,South,175,0.0,11.0,85,0.00,,,0.00,Wunderground v.1.15,2013-09-19 06:37:00,
2013-09-19 01:42:00,73.3,68.5,29.88,South,191,2.0,3.0,85,0.00,,,0.00,Wunderground v.1.15,2013-09-19 06:42:00,
2013-09-19 01:48:00,73.3,68.5,29.88,SSE,165,5.0,5.0,85,0.00,,,0.00,Wunderground v.1.15,2013-09-19 06:48:00,
2013-09-19 01:54:00,73.3,68.5,29.88,SSE,158,0.0,9.0,85,0.00,,,0.00,Wunderground v.1.15,2013-09-19 06:54:00,
2013-09-19 01:59:00,73.2,68.4,29.88,South,186,0.0,9.0,85,0.00,,,0.00,Wunderground v.1.15,2013-09-19 06:59:00,
2013-09-19 02:04:00,73.2,68.4,29.88,South,184,7.0,10.0,85,0.00,,,0.00,Wunderground v.1.15,2013-09-19 07:04:00,
2013-09-19 02:09:00,73.2,68.4,29.88,SSW,205,0.0,10.0,85,0.00,,,0.00,Wunderground v.1.15,2013-09-19 07:09:00,
2013-09-19 02:14:00,73.2,68.4,29.88,SSE,147,2.0,8.0,85,0.00,,,0.00,Wunderground v.1.15,2013-09-19 07:14:00,
2013-09-19 02:19:00,73.0,68.2,29.88,South,182,0.0,8.0,85,0.00,,,0.00,Wunderground v.1.15,2013-09-19 07:19:00,
2013-09-19 02:24:00,73.0,68.2,29.88,SSE,160,0.0,6.0,85,0.00,,,0.00,Wunderground v.1.15,2013-09-19 07:24:00,
2013-09-19 02:29:00,72.8,68.0,29.88,SSE,168,0.0,6.0,85,0.00,,,0.00,Wunderground v.1.15,2013-09-19 07:29:00,
2013-09-19 02:34:00,72.7,67.9,29.88,SSE,162,4.0,8.0,85,0.00,,,0.00,Wunderground v.1.15,2013-09-19 07:34:00,
2013-09-19 02:39:00,72.7,67.9,29.88,SSE,165,0.0,8.0,85,0.00,,,0.00,Wunderground v.1.15,2013-09-19 07:39:00,
2013-09-19 02:44:00,72.5,68.1,29.88,SSE,161,0.0,6.0,86,0.00,,,0.00,Wunderground v.1.15,2013-09-19 07:44:00,
2013-09-19 02:49:00,72.5,67.7,29.88,SSE,165,0.0,9.0,85,0.00,,,0.00,Wunderground v.1.15,2013-09-19 07:49:00,
2013-09-19 02:54:00,72.5,67.7,29.88,SSE,157,2.0,8.0,85,0.00,,,0.00,Wunderground v.1.15,2013-09-19 07:54:00,
2013-09-19 02:59:00,72.5,67.7,29.88,SSE,165,0.0,8.0,85,0.00,,,0.00,Wunderground v.1.15,2013-09-19 07:59:00,
2013-09-19 03:04:00,72.5,67.7,29.87,South,186,6.0,7.0,85,0.00,,,0.00,Wunderground v.1.15,2013-09-19 08:04:00,
2013-09-19 03:09:00,72.5,67.7,29.87,SSE,150,1.0,7.0,85,0.00,,,0.00,Wunderground v.1.15,2013-09-19 08:09:00,
2013-09-19 03:14:00,72.5,68.1,29.87,South,181,0.0,8.0,86,0.00,,,0.00,Wunderground v.1.15,2013-09-19 08:14:00,
2013-09-19 03:19:00,72.3,67.9,29.87,SSE,155,5.0,8.0,86,0.00,,,0.00,Wunderground v.1.15,2013-09-19 08:19:00,
2013-09-19 03:24:00,72.3,67.9,29.87,SSE,164,1.0,10.0,86,0.00,,,0.00,Wunderground v.1.15,2013-09-19 08:24:00,
2013-09-19 03:29:00,72.3,67.9,29.87,SSE,155,3.0,10.0,86,0.00,,,0.00,Wunderground v.1.15,2013-09-19 08:29:00,
2013-09-19 03:34:00,72.3,67.9,29.87,SSE,168,3.0,8.0,86,0.00,,,0.00,Wunderground v.1.15,2013-09-19 08:34:00,
2013-09-19 03:39:00,72.1,67.7,29.87,SSE,162,0.0,8.0,86,0.00,,,0.00,Wunderground v.1.15,2013-09-19 08:39:00,
2013-09-19 03:44:00,72.1,67.7,29.87,SW,229,5.0,8.0,86,0.00,,,0.00,Wunderground v.1.15,2013-09-19 08:44:00,
2013-09-19 03:49:00,72.0,67.9,29.86,South,184,1.0,8.0,87,0.00,,,0.00,Wunderground v.1.15,2013-09-19 08:49:00,
2013-09-19 03:54:00,72.0,67.9,29.86,SSE,158,8.0,8.0,87,0.00,,,0.00,Wunderground v.1.15,2013-09-19 08:54:00,
2013-09-19 03:59:00,72.0,67.9,29.86,SW,229,1.0,8.0,87,0.00,,,0.00,Wunderground v.1.15,2013-09-19 08:59:00,
2013-09-19 04:04:00,72.0,67.9,29.86,South,172,7.0,7.0,87,0.00,,,0.00,Wunderground v.1.15,2013-09-19 09:04:00,
2013-09-19 04:09:00,72.0,67.9,29.86,South,176,6.0,10.0,87,0.00,,,0.00,Wunderground v.1.15,2013-09-19 09:09:00,
2013-09-19 04:14:00,71.8,67.7,29.86,SSW,196,5.0,6.0,87,0.00,,,0.00,Wunderground v.1.15,2013-09-19 09:14:00,
2013-09-19 04:19:00,72.0,67.9,29.86,SSW,196,1.0,12.0,87,0.00,,,0.00,Wunderground v.1.15,2013-09-19 09:19:00,
2013-09-19 04:24:00,72.0,67.9,29.86,SSE,151,4.0,7.0,87,0.00,,,0.00,Wunderground v.1.15,2013-09-19 09:24:00,
2013-09-19 04:29:00,71.8,67.7,29.86,SSW,196,2.0,8.0,87,0.00,,,0.00,Wunderground v.1.15,2013-09-19 09:29:00,
2013-09-19 04:34:00,71.8,67.7,29.86,South,179,3.0,10.0,87,0.00,,,0.00,Wunderground v.1.15,2013-09-19 09:34:00,
2013-09-19 04:39:00,71.8,68.1,29.86,SSE,161,2.0,11.0,88,0.00,,,0.00,Wunderground v.1.15,2013-09-19 09:39:00,
2013-09-19 04:44:00,71.6,67.9,29.86,South,182,2.0,8.0,88,0.00,,,0.00,Wunderground v.1.15,2013-09-19 09:44:00,
2013-09-19 04:49:00,71.5,67.8,29.86,SSE,164,2.0,8.0,88,0.00,,,0.00,Wunderground v.1.15,2013-09-19 09:49:00,
2013-09-19 04:54:00,71.5,67.8,29.86,SSE,148,0.0,7.0,88,0.00,,,0.00,Wunderground v.1.15,2013-09-19 09:54:00,
2013-09-19 04:59:00,71.5,67.8,29.85,SSE,148,5.0,9.0,88,0.00,,,0.00,Wunderground v.1.15,2013-09-19 09:59:00,
2013-09-19 05:04:00,71.3,67.9,29.85,SSE,168,3.0,11.0,89,0.00,,,0.00,Wunderground v.1.15,2013-09-19 10:04:00,
2013-09-19 05:09:00,71.3,67.9,29.85,South,178,1.0,12.0,89,0.00,,,0.00,Wunderground v.1.15,2013-09-19 10:09:00,
2013-09-19 05:14:00,71.1,67.7,29.85,SSE,167,0.0,5.0,89,0.00,,,0.00,Wunderground v.1.15,2013-09-19 10:14:00,
2013-09-19 05:20:00,71.1,67.7,29.85,SW,227,0.0,2.0,89,0.00,,,0.00,Wunderground v.1.15,2013-09-19 10:20:00,
2013-09-19 05:25:00,71.1,67.7,29.85,SSE,154,4.0,7.0,89,0.00,,,0.00,Wunderground v.1.15,2013-09-19 10:25:00,
2013-09-19 05:30:00,70.9,67.5,29.85,South,189,0.0,1.0,89,0.00,,,0.00,Wunderground v.1.15,2013-09-19 10:30:00,
2013-09-19 05:35:00,70.9,67.5,29.85,SSE,162,3.0,8.0,89,0.00,,,0.00,Wunderground v.1.15,2013-09-19 10:35:00,
2013-09-19 05:40:00,70.8,67.4,29.85,SSE,152,6.0,6.0,89,0.00,,,0.00,Wunderground v.1.15,2013-09-19 10:40:00,
2013-09-19 05:45:00,70.8,67.7,29.86,South,169,6.0,8.0,90,0.00,,,0.00,Wunderground v.1.15,2013-09-19 10:45:00,
2013-09-19 05:50:00,70.6,67.5,29.86,SSE,155,0.0,3.0,90,0.00,,,0.00,Wunderground v.1.15,2013-09-19 10:50:00,
2013-09-19 05:55:00,70.6,67.5,29.86,SE,144,5.0,10.0,90,0.00,,,0.00,Wunderground v.1.15,2013-09-19 10:55:00,
2013-09-19 06:00:00,70.4,67.3,29.86,SSE,167,2.0,5.0,90,0.00,,,0.00,Wunderground v.1.15,2013-09-19 11:00:00,
2013-09-19 06:05:00,70.4,67.3,29.86,South,175,0.0,7.0,90,0.00,,,0.00,Wunderground v.1.15,2013-09-19 11:05:00,
2013-09-19 06:10:00,70.4,67.3,29.86,South,171,0.0,3.0,90,0.00,,,0.00,Wunderground v.1.15,2013-09-19 11:10:00,
2013-09-19 06:15:00,70.4,67.3,29.86,SSW,212,0.0,8.0,90,0.00,,,0.00,Wunderground v.1.15,2013-09-19 11:15:00,
2013-09-19 06:20:00,70.4,67.3,29.86,South,185,2.0,6.0,90,0.00,,,0.00,Wunderground v.1.15,2013-09-19 11:20:00,
2013-09-19 06:25:00,70.4,67.3,29.86,SSW,193,6.0,8.0,90,0.00,,,0.00,Wunderground v.1.15,2013-09-19 11:25:00,
2013-09-19 06:30:00,70.3,67.5,29.86,SSE,168,5.0,5.0,91,0.00,,,0.00,Wunderground v.1.15,2013-09-19 11:30:00,
2013-09-19 06:35:00,70.3,67.5,29.86,SSE,161,8.0,10.0,91,0.00,,,0.00,Wunderground v.1.15,2013-09-19 11:35:00,
2013-09-19 06:40:00,70.3,67.5,29.86,SSE,157,7.0,7.0,91,0.00,,,0.00,Wunderground v.1.15,2013-09-19 11:40:00,
2013-09-19 06:45:00,70.3,67.5,29.86,SSE,161,0.0,11.0,91,0.00,,,0.00,Wunderground v.1.15,2013-09-19 11:45:00,
2013-09-19 06:50:00,70.3,67.5,29.86,South,188,10.0,10.0,91,0.00,,,0.00,Wunderground v.1.15,2013-09-19 11:50:00,
2013-09-19 06:55:00,70.3,67.5,29.86,SSE,162,6.0,10.0,91,0.00,,,0.00,Wunderground v.1.15,2013-09-19 11:55:00,
2013-09-19 07:00:00,70.3,67.5,29.86,South,179,0.0,4.0,91,0.00,,,0.00,Wunderground v.1.15,2013-09-19 12:00:00,
2013-09-19 07:05:00,70.3,67.5,29.86,SSE,165,0.0,7.0,91,0.00,,,0.00,Wunderground v.1.15,2013-09-19 12:05:00,
2013-09-19 07:10:00,70.4,67.6,29.86,SSW,213,0.0,2.0,91,0.00,,,0.00,Wunderground v.1.15,2013-09-19 12:10:00,
2013-09-19 07:15:00,70.6,67.8,29.87,South,188,2.0,9.0,91,0.00,,,0.00,Wunderground v.1.15,2013-09-19 12:15:00,
2013-09-19 07:21:00,70.6,67.5,29.87,South,171,0.0,6.0,90,0.00,,,0.00,Wunderground v.1.15,2013-09-19 12:21:00,
2013-09-19 07:26:00,70.6,67.5,29.87,South,179,0.0,7.0,90,0.00,,,0.00,Wunderground v.1.15,2013-09-19 12:26:00,
2013-09-19 07:31:00,70.8,67.7,29.87,South,169,2.0,7.0,90,0.00,,,0.00,Wunderground v.1.15,2013-09-19 12:31:00,
2013-09-19 07:36:00,71.1,68.0,29.87,SSE,161,3.0,8.0,90,0.00,,,0.00,Wunderground v.1.15,2013-09-19 12:36:00,
2013-09-19 07:41:00,71.5,68.1,29.87,West,261,4.0,6.0,89,0.00,,,0.00,Wunderground v.1.15,2013-09-19 12:41:00,
2013-09-19 07:46:00,71.6,68.2,29.86,South,175,3.0,7.0,89,0.00,,,0.00,Wunderground v.1.15,2013-09-19 12:46:00,
2013-09-19 07:51:00,72.0,68.6,29.86,South,176,0.0,2.0,89,0.00,,,0.00,Wunderground v.1.15,2013-09-19 12:51:00,
2013-09-19 07:56:00,72.1,68.3,29.86,SSE,168,6.0,11.0,88,0.00,,,0.00,Wunderground v.1.15,2013-09-19 12:56:00,
2013-09-19 08:01:00,72.3,68.5,29.86,South,185,2.0,3.0,88,0.00,,,0.00,Wunderground v.1.15,2013-09-19 13:01:00,
2013-09-19 08:06:00,72.5,68.4,29.86,SSE,157,2.0,8.0,87,0.00,,,0.00,Wunderground v.1.15,2013-09-19 13:06:00,
2013-09-19 08:11:00,72.7,68.6,29.86,South,172,4.0,8.0,87,0.00,,,0.00,Wunderground v.1.15,2013-09-19 13:11:00,
2013-09-19 08:16:00,72.8,68.7,29.87,SSW,206,1.0,8.0,87,0.00,,,0.00,Wunderground v.1.15,2013-09-19 13:16:00,
2013-09-19 08:21:00,73.0,68.6,29.87,South,176,4.0,6.0,86,0.00,,,0.00,Wunderground v.1.15,2013-09-19 13:21:00,
2013-09-19 08:26:00,73.3,68.9,29.87,SE,141,4.0,13.0,86,0.00,,,0.00,Wunderground v.1.15,2013-09-19 13:26:00,
2013-09-19 08:31:00,73.7,68.9,29.87,SSW,193,0.0,5.0,85,0.00,,,0.00,Wunderground v.1.15,2013-09-19 13:31:00,
2013-09-19 08:36:00,74.0,68.9,29.87,South,188,0.0,9.0,84,0.00,,,0.00,Wunderground v.1.15,2013-09-19 13:36:00,
2013-09-19 08:41:00,74.4,69.2,29.87,SSE,157,5.0,8.0,84,0.00,,,0.00,Wunderground v.1.15,2013-09-19 13:41:00,
2013-09-19 08:46:00,74.7,69.2,29.87,SW,229,6.0,12.0,83,0.00,,,0.00,Wunderground v.1.15,2013-09-19 13:46:00,
2013-09-19 08:51:00,75.1,69.2,29.87,SW,222,6.0,7.0,82,0.00,,,0.00,Wunderground v.1.15,2013-09-19 13:51:00,
2013-09-19 08:56:00,75.4,69.5,29.87,SW,217,7.0,7.0,82,0.00,,,0.00,Wunderground v.1.15,2013-09-19 13:56:00,
2013-09-19 09:01:00,75.6,69.4,29.88,WSW,237,5.0,10.0,81,0.00,,,0.00,Wunderground v.1.15,2013-09-19 14:01:00,
2013-09-19 09:06:00,75.8,69.6,29.88,SSW,192,1.0,15.0,81,0.00,,,0.00,Wunderground v.1.15,2013-09-19 14:06:00,
2013-09-19 09:11:00,76.3,69.7,29.88,WNW,289,1.0,10.0,80,0.00,,,0.00,Wunderground v.1.15,2013-09-19 14:11:00,
2013-09-19 09:16:00,76.7,69.3,29.87,SSW,200,0.0,12.0,78,0.00,,,0.00,Wunderground v.1.15,2013-09-19 14:16:00,
2013-09-19 09:21:00,77.0,69.6,29.87,SW,224,8.0,11.0,78,0.00,,,0.00,Wunderground v.1.15,2013-09-19 14:21:00,
2013-09-19 09:26:00,77.2,69.4,29.87,SW,220,4.0,16.0,77,0.00,,,0.00,Wunderground v.1.15,2013-09-19 14:26:00,
2013-09-19 09:32:00,77.0,69.2,29.87,SSW,213,7.0,13.0,77,0.00,,,0.00,Wunderground v.1.15,2013-09-19 14:32:00,
2013-09-19 09:37:00,77.4,69.6,29.87,SW,217,1.0,13.0,77,0.00,,,0.00,Wunderground v.1.15,2013-09-19 14:37:00,
2013-09-19 09:42:00,77.9,69.7,29.87,SSE,165,9.0,12.0,76,0.00,,,0.00,Wunderground v.1.15,2013-09-19 14:42:00,
2013-09-19 09:47:00,78.3,69.3,29.87,WSW,243,6.0,13.0,74,0.00,,,0.00,Wunderground v.1.15,2013-09-19 14:47:00,
2013-09-19 09:52:00,78.5,69.5,29.87,SW,233,10.0,13.0,74,0.00,,,0.00,Wunderground v.1.15,2013-09-19 14:52:00,
2013-09-19 09:57:00,78.8,69.4,29.87,SW,230,2.0,17.0,73,0.00,,,0.00,Wunderground v.1.15,2013-09-19 14:57:00,
2013-09-19 10:02:00,79.0,69.6,29.86,South,171,5.0,13.0,73,0.00,,,0.00,Wunderground v.1.15,2013-09-19 15:02:00,
2013-09-19 10:07:00,79.4,70.4,29.86,SSE,168,1.0,13.0,74,0.00,,,0.00,Wunderground v.1.15,2013-09-19 15:07:00,
2013-09-19 10:12:00,79.8,70.0,29.86,South,185,7.0,11.0,72,0.00,,,0.00,Wunderground v.1.15,2013-09-19 15:12:00,
2013-09-19 10:17:00,80.3,70.0,29.86,SW,217,7.0,11.0,71,0.00,,,0.00,Wunderground v.1.15,2013-09-19 15:17:00,
2013-09-19 10:22:00,80.9,70.6,29.86,SSW,198,2.0,8.0,71,0.00,,,0.00,Wunderground v.1.15,2013-09-19 15:22:00,
2013-09-19 10:27:00,81.2,70.1,29.86,SW,216,1.0,13.0,69,0.00,,,0.00,Wunderground v.1.15,2013-09-19 15:27:00,
2013-09-19 10:32:00,81.6,70.4,29.86,SSW,198,2.0,8.0,69,0.00,,,0.00,Wunderground v.1.15,2013-09-19 15:32:00,
2013-09-19 10:37:00,82.0,70.0,29.86,SW,215,10.0,12.0,67,0.00,,,0.00,Wunderground v.1.15,2013-09-19 15:37:00,
2013-09-19 10:42:00,82.4,70.3,29.86,SW,222,7.0,8.0,67,0.00,,,0.00,Wunderground v.1.15,2013-09-19 15:42:00,
2013-09-19 10:47:00,82.8,70.3,29.86,SSE,157,3.0,11.0,66,0.00,,,0.00,Wunderground v.1.15,2013-09-19 15:47:00,
2013-09-19 10:52:00,83.4,70.8,29.86,SSW,192,0.0,6.0,66,0.00,,,0.00,Wunderground v.1.15,2013-09-19 15:52:00,
2013-09-19 10:57:00,84.0,70.5,29.86,WSW,237,8.0,12.0,64,0.00,,,0.00,Wunderground v.1.15,2013-09-19 15:57:00,
2013-09-19 11:02:00,83.8,70.3,29.86,SSW,202,2.0,11.0,64,0.00,,,0.00,Wunderground v.1.15,2013-09-19 16:02:00,
2013-09-19 11:07:00,83.8,69.9,29.86,South,184,2.0,12.0,63,0.00,,,0.00,Wunderground v.1.15,2013-09-19 16:07:00,
2013-09-19 11:12:00,84.1,70.1,29.86,SSW,213,14.0,14.0,63,0.00,,,0.00,Wunderground v.1.15,2013-09-19 16:12:00,
2013-09-19 11:17:00,84.3,69.9,29.85,SSW,196,6.0,14.0,62,0.00,,,0.00,Wunderground v.1.15,2013-09-19 16:17:00,
2013-09-19 11:22:00,84.3,70.3,29.85,SW,236,14.0,14.0,63,0.00,,,0.00,Wunderground v.1.15,2013-09-19 16:22:00,
2013-09-19 11:27:00,84.3,69.9,29.85,SW,215,2.0,14.0,62,0.00,,,0.00,Wunderground v.1.15,2013-09-19 16:27:00,
2013-09-19 11:32:00,84.7,70.2,29.85,WSW,237,1.0,14.0,62,0.00,,,0.00,Wunderground v.1.15,2013-09-19 16:32:00,
2013-09-19 11:37:00,84.9,69.9,29.85,WSW,241,7.0,14.0,61,0.00,,,0.00,Wunderground v.1.15,2013-09-19 16:37:00,
2013-09-19 11:42:00,85.3,69.8,29.85,South,179,5.0,10.0,60,0.00,,,0.00,Wunderground v.1.15,2013-09-19 16:42:00,
2013-09-19 11:47:00,85.1,69.7,29.85,WSW,248,7.0,12.0,60,0.00,,,0.00,Wunderground v.1.15,2013-09-19 16:47:00,
2013-09-19 11:52:00,85.5,70.5,29.85,SSW,213,1.0,8.0,61,0.00,,,0.00,Wunderground v.1.15,2013-09-19 16:52:00,
2013-09-19 11:57:00,86.1,70.1,29.85,SSE,154,2.0,12.0,59,0.00,,,0.00,Wunderground v.1.15,2013-09-19 16:57:00,
2013-09-19 12:02:00,86.5,70.0,29.84,South,175,2.0,11.0,58,0.00,,,0.00,Wunderground v.1.15,2013-09-19 17:02:00,
2013-09-19 12:07:00,87.0,69.9,29.84,WSW,243,3.0,11.0,57,0.00,,,0.00,Wunderground v.1.15,2013-09-19 17:07:00,
2013-09-19 12:12:00,87.2,69.6,29.84,SW,230,5.0,16.0,56,0.00,,,0.00,Wunderground v.1.15,2013-09-19 17:12:00,
2013-09-19 12:17:00,87.0,69.9,29.84,SSW,210,3.0,16.0,57,0.00,,,0.00,Wunderground v.1.15,2013-09-19 17:17:00,
2013-09-19 12:22:00,87.4,69.8,29.84,SSW,205,6.0,8.0,56,0.00,,,0.00,Wunderground v.1.15,2013-09-19 17:22:00,
2013-09-19 12:27:00,87.4,70.3,29.84,SW,236,3.0,12.0,57,0.00,,,0.00,Wunderground v.1.15,2013-09-19 17:27:00,
2013-09-19 12:32:00,87.4,70.3,29.84,West,260,6.0,12.0,57,0.00,,,0.00,Wunderground v.1.15,2013-09-19 17:32:00,
2013-09-19 12:37:00,87.6,70.0,29.84,WSW,239,1.0,13.0,56,0.00,,,0.00,Wunderground v.1.15,2013-09-19 17:37:00,
2013-09-19 12:42:00,88.0,70.3,29.84,South,184,3.0,11.0,56,0.00,,,0.00,Wunderground v.1.15,2013-09-19 17:42:00,
2013-09-19 12:47:00,88.0,70.9,29.83,SSE,154,1.0,13.0,57,0.00,,,0.00,Wunderground v.1.15,2013-09-19 17:47:00,
2013-09-19 12:52:00,87.6,70.0,29.83,SW,227,2.0,8.0,56,0.00,,,0.00,Wunderground v.1.15,2013-09-19 17:52:00,
2013-09-19 12:57:00,86.7,70.2,29.83,SW,224,3.0,11.0,58,0.00,,,0.00,Wunderground v.1.15,2013-09-19 17:57:00,
2013-09-19 13:03:00,85.9,69.9,29.84,WSW,256,7.0,11.0,59,0.00,,,0.00,Wunderground v.1.15,2013-09-19 18:03:00,
2013-09-19 13:08:00,85.7,70.2,29.84,SW,236,13.0,13.0,60,0.00,,,0.00,Wunderground v.1.15,2013-09-19 18:08:00,
2013-09-19 13:13:00,84.9,69.5,29.84,SW,229,2.0,15.0,60,0.00,,,0.00,Wunderground v.1.15,2013-09-19 18:13:00,
2013-09-19 13:18:00,84.7,70.2,29.84,SW,233,0.0,15.0,62,0.00,,,0.00,Wunderground v.1.15,2013-09-19 18:18:00,
2013-09-19 13:23:00,84.9,70.4,29.84,SSW,192,3.0,8.0,62,0.00,,,0.00,Wunderground v.1.15,2013-09-19 18:23:00,
2013-09-19 13:28:00,84.7,71.2,29.84,SSW,202,3.0,8.0,64,0.00,,,0.00,Wunderground v.1.15,2013-09-19 18:28:00,
2013-09-19 13:33:00,84.5,71.0,29.83,SSW,213,8.0,10.0,64,0.00,,,0.00,Wunderground v.1.15,2013-09-19 18:33:00,
2013-09-19 13:38:00,84.5,70.0,29.83,South,188,2.0,10.0,62,0.00,,,0.00,Wunderground v.1.15,2013-09-19 18:38:00,
2013-09-19 13:43:00,85.1,70.1,29.83,SW,216,2.0,11.0,61,0.00,,,0.00,Wunderground v.1.15,2013-09-19 18:43:00,
2013-09-19 13:48:00,85.9,70.4,29.82,South,178,8.0,11.0,60,0.00,,,0.00,Wunderground v.1.15,2013-09-19 18:48:00,
2013-09-19 13:53:00,86.3,70.3,29.82,SSW,193,4.0,10.0,59,0.00,,,0.00,Wunderground v.1.15,2013-09-19 18:53:00,
2013-09-19 13:58:00,87.4,71.3,29.82,South,184,1.0,10.0,59,0.00,,,0.00,Wunderground v.1.15,2013-09-19 18:58:00,
2013-09-19 14:03:00,87.4,71.3,29.81,SSW,208,2.0,9.0,59,0.00,,,0.00,Wunderground v.1.15,2013-09-19 19:03:00,
2013-09-19 14:08:00,87.2,70.6,29.81,SSW,212,1.0,12.0,58,0.00,,,0.00,Wunderground v.1.15,2013-09-19 19:08:00,
2013-09-19 14:13:00,87.0,71.4,29.81,South,189,3.0,9.0,60,0.00,,,0.00,Wunderground v.1.15,2013-09-19 19:13:00,
2013-09-19 14:18:00,86.5,70.0,29.81,SSW,212,6.0,9.0,58,0.00,,,0.00,Wunderground v.1.15,2013-09-19 19:18:00,
2013-09-19 14:23:00,86.7,70.2,29.81,South,181,3.0,7.0,58,0.00,,,0.00,Wunderground v.1.15,2013-09-19 19:23:00,
2013-09-19 14:28:00,86.5,70.5,29.81,ESE,120,2.0,11.0,59,0.00,,,0.00,Wunderground v.1.15,2013-09-19 19:28:00,
2013-09-19 14:33:00,86.1,70.6,29.81,South,176,3.0,11.0,60,0.00,,,0.00,Wunderground v.1.15,2013-09-19 19:33:00,
2013-09-19 14:38:00,86.1,71.1,29.81,SW,223,5.0,11.0,61,0.00,,,0.00,Wunderground v.1.15,2013-09-19 19:38:00,
2013-09-19 14:43:00,87.0,71.4,29.81,SW,223,0.0,5.0,60,0.00,,,0.00,Wunderground v.1.15,2013-09-19 19:43:00,
2013-09-19 14:48:00,88.2,71.6,29.80,SSE,164,1.0,7.0,58,0.00,,,0.00,Wunderground v.1.15,2013-09-19 19:48:00,
2013-09-19 14:53:00,88.8,71.1,29.80,SSW,196,3.0,12.0,56,0.00,,,0.00,Wunderground v.1.15,2013-09-19 19:53:00,
2013-09-19 14:58:00,89.0,70.7,29.80,SSW,203,10.0,12.0,55,0.00,,,0.00,Wunderground v.1.15,2013-09-19 19:58:00,
2013-09-19 15:03:00,88.8,70.0,29.79,SSW,200,7.0,11.0,54,0.00,,,0.00,Wunderground v.1.15,2013-09-19 20:03:00,
2013-09-19 15:08:00,89.0,70.7,29.79,SSE,158,6.0,11.0,55,0.00,,,0.00,Wunderground v.1.15,2013-09-19 20:08:00,
2013-09-19 15:13:00,89.0,70.7,29.79,SSW,210,10.0,11.0,55,0.00,,,0.00,Wunderground v.1.15,2013-09-19 20:13:00,
2013-09-19 15:18:00,89.3,70.5,29.78,West,263,5.0,12.0,54,0.00,,,0.00,Wunderground v.1.15,2013-09-19 20:18:00,
2013-09-19 15:23:00,89.5,71.7,29.78,South,184,3.0,10.0,56,0.00,,,0.00,Wunderground v.1.15,2013-09-19 20:23:00,
2013-09-19 15:28:00,89.5,70.1,29.78,South,182,3.0,14.0,53,0.00,,,0.00,Wunderground v.1.15,2013-09-19 20:28:00,
2013-09-19 15:33:00,89.5,70.7,29.77,WSW,247,8.0,14.0,54,0.00,,,0.00,Wunderground v.1.15,2013-09-19 20:33:00,
2013-09-19 15:38:00,89.5,70.7,29.77,SSE,155,0.0,14.0,54,0.00,,,0.00,Wunderground v.1.15,2013-09-19 20:38:00,
2013-09-19 15:43:00,89.3,70.5,29.77,South,191,7.0,10.0,54,0.00,,,0.00,Wunderground v.1.15,2013-09-19 20:43:00,
2013-09-19 15:48:00,89.3,70.5,29.76,SSW,209,2.0,10.0,54,0.00,,,0.00,Wunderground v.1.15,2013-09-19 20:48:00,
2013-09-19 15:53:00,88.8,70.5,29.76,SSE,150,4.0,14.0,55,0.00,,,0.00,Wunderground v.1.15,2013-09-19 20:53:00,
2013-09-19 15:58:00,88.6,70.9,29.76,ENE,71,0.0,14.0,56,0.00,,,0.00,Wunderground v.1.15,2013-09-19 20:58:00,
2013-09-19 16:03:00,88.6,70.9,29.76,South,184,0.0,10.0,56,0.00,,,0.00,Wunderground v.1.15,2013-09-19 21:03:00,
2013-09-19 16:08:00,88.8,70.5,29.76,South,172,1.0,10.0,55,0.00,,,0.00,Wunderground v.1.15,2013-09-19 21:08:00,
2013-09-19 16:13:00,88.6,70.4,29.76,South,175,5.0,12.0,55,0.00,,,0.00,Wunderground v.1.15,2013-09-19 21:13:00,
2013-09-19 16:18:00,88.4,70.7,29.74,South,172,8.0,17.0,56,0.00,,,0.00,Wunderground v.1.15,2013-09-19 21:18:00,
2013-09-19 16:23:00,88.2,70.0,29.74,WSW,244,10.0,13.0,55,0.00,,,0.00,Wunderground v.1.15,2013-09-19 21:23:00,
2013-09-19 16:28:00,88.2,70.5,29.74,SSW,213,4.0,13.0,56,0.00,,,0.00,Wunderground v.1.15,2013-09-19 21:28:00,
2013-09-19 16:33:00,88.2,70.0,29.74,SSE,150,2.0,14.0,55,0.00,,,0.00,Wunderground v.1.15,2013-09-19 21:33:00,
2013-09-19 16:38:00,88.2,69.5,29.74,SSE,167,2.0,16.0,54,0.00,,,0.00,Wunderground v.1.15,2013-09-19 21:38:00,
2013-09-19 16:43:00,88.2,69.5,29.74,South,169,4.0,13.0,54,0.00,,,0.00,Wunderground v.1.15,2013-09-19 21:43:00,
2013-09-19 16:48:00,88.2,70.0,29.72,SW,219,8.0,13.0,55,0.00,,,0.00,Wunderground v.1.15,2013-09-19 21:48:00,
2013-09-19 16:53:00,88.2,69.5,29.72,South,191,10.0,16.0,54,0.00,,,0.00,Wunderground v.1.15,2013-09-19 21:53:00,
2013-09-19 16:58:00,88.0,69.8,29.72,SW,227,10.0,16.0,55,0.00,,,0.00,Wunderground v.1.15,2013-09-19 21:58:00,
2013-09-19 17:04:00,87.8,69.1,29.72,SSW,195,3.0,17.0,54,0.00,,,0.00,Wunderground v.1.15,2013-09-19 22:04:00,
2013-09-19 17:08:00,87.4,68.7,29.72,SSW,202,6.0,17.0,54,0.00,,,0.00,Wunderground v.1.15,2013-09-19 22:08:00,
2013-09-19 17:14:00,87.2,68.5,29.72,SSW,193,11.0,18.0,54,0.00,,,0.00,Wunderground v.1.15,2013-09-19 22:14:00,
2013-09-19 17:19:00,87.0,68.3,29.72,SW,219,3.0,18.0,54,0.00,,,0.00,Wunderground v.1.15,2013-09-19 22:19:00,
2013-09-19 17:24:00,86.7,68.1,29.72,South,189,14.0,14.0,54,0.00,,,0.00,Wunderground v.1.15,2013-09-19 22:24:00,
2013-09-19 17:29:00,86.5,68.4,29.72,SW,222,5.0,14.0,55,0.00,,,0.00,Wunderground v.1.15,2013-09-19 22:29:00,
2013-09-19 17:34:00,86.5,68.4,29.72,SW,215,3.0,10.0,55,0.00,,,0.00,Wunderground v.1.15,2013-09-19 22:34:00,
2013-09-19 17:39:00,86.3,68.8,29.72,South,185,4.0,11.0,56,0.00,,,0.00,Wunderground v.1.15,2013-09-19 22:39:00,
2013-09-19 17:44:00,86.1,68.6,29.72,SSW,203,6.0,10.0,56,0.00,,,0.00,Wunderground v.1.15,2013-09-19 22:44:00,
2013-09-19 17:49:00,85.9,68.9,29.73,SSE,148,4.0,10.0,57,0.00,,,0.00,Wunderground v.1.15,2013-09-19 22:49:00,
2013-09-19 17:54:00,85.9,68.9,29.73,South,188,3.0,7.0,57,0.00,,,0.00,Wunderground v.1.15,2013-09-19 22:54:00,
2013-09-19 17:59:00,85.7,69.2,29.73,SSE,168,3.0,7.0,58,0.00,,,0.00,Wunderground v.1.15,2013-09-19 22:59:00,
2013-09-19 18:04:00,85.5,69.5,29.73,South,181,2.0,7.0,59,0.00,,,0.00,Wunderground v.1.15,2013-09-19 23:04:00,
2013-09-19 18:09:00,85.3,69.3,29.73,SSW,210,1.0,7.0,59,0.00,,,0.00,Wunderground v.1.15,2013-09-19 23:09:00,
2013-09-19 18:14:00,85.1,69.2,29.73,SSW,193,1.0,5.0,59,0.00,,,0.00,Wunderground v.1.15,2013-09-19 23:14:00,
2013-09-19 18:19:00,84.9,69.5,29.74,South,179,0.0,7.0,60,0.00,,,0.00,Wunderground v.1.15,2013-09-19 23:19:00,
2013-09-19 18:24:00,84.7,69.3,29.74,South,191,1.0,3.0,60,0.00,,,0.00,Wunderground v.1.15,2013-09-19 23:24:00,
2013-09-19 18:29:00,84.3,69.4,29.74,SSW,196,0.0,6.0,61,0.00,,,0.00,Wunderground v.1.15,2013-09-19 23:29:00,
2013-09-19 18:34:00,84.1,69.2,29.75,South,188,7.0,8.0,61,0.00,,,0.00,Wunderground v.1.15,2013-09-19 23:34:00,
2013-09-19 18:39:00,84.0,69.1,29.75,SSW,200,0.0,8.0,61,0.00,,,0.00,Wunderground v.1.15,2013-09-19 23:39:00,
2013-09-19 18:44:00,84.0,69.6,29.75,SSW,200,2.0,7.0,62,0.00,,,0.00,Wunderground v.1.15,2013-09-19 23:44:00,
2013-09-19 18:49:00,83.8,69.4,29.75,SW,215,5.0,8.0,62,0.00,,,0.00,Wunderground v.1.15,2013-09-19 23:49:00,
2013-09-19 18:54:00,83.6,69.7,29.75,SW,219,2.0,7.0,63,0.00,,,0.00,Wunderground v.1.15,2013-09-19 23:54:00,
2013-09-19 18:59:00,83.4,69.5,29.76,South,178,5.0,7.0,63,0.00,,,0.00,Wunderground v.1.15,2013-09-19 23:59:00,
2013-09-19 19:04:00,83.0,69.6,29.76,SSW,193,1.0,6.0,64,0.00,,,0.00,Wunderground v.1.15,2013-09-20 00:04:00,
2013-09-19 19:09:00,82.6,69.2,29.76,SSE,160,0.0,6.0,64,0.00,,,0.00,Wunderground v.1.15,2013-09-20 00:09:00,
2013-09-19 19:14:00,82.4,69.4,29.77,SSE,160,0.0,3.0,65,0.00,,,0.00,Wunderground v.1.15,2013-09-20 00:14:00,
2013-09-19 19:19:00,82.2,69.3,29.77,South,176,0.0,5.0,65,0.00,,,0.00,Wunderground v.1.15,2013-09-20 00:19:00,
2013-09-19 19:24:00,82.0,69.5,29.77,SW,230,1.0,7.0,66,0.00,,,0.00,Wunderground v.1.15,2013-09-20 00:24:00,
2013-09-19 19:29:00,81.8,69.3,29.76,SSW,209,1.0,7.0,66,0.00,,,0.00,Wunderground v.1.15,2013-09-20 00:29:00,
2013-09-19 19:34:00,81.6,69.6,29.76,South,191,1.0,5.0,67,0.00,,,0.00,Wunderground v.1.15,2013-09-20 00:34:00,
2013-09-19 19:39:00,81.4,69.4,29.76,SSE,168,0.0,6.0,67,0.00,,,0.00,Wunderground v.1.15,2013-09-20 00:39:00,
2013-09-19 19:44:00,81.1,69.5,29.76,South,176,3.0,5.0,68,0.00,,,0.00,Wunderground v.1.15,2013-09-20 00:44:00,
2013-09-19 19:49:00,80.9,69.3,29.76,SSE,162,2.0,8.0,68,0.00,,,0.00,Wunderground v.1.15,2013-09-20 00:49:00,
2013-09-19 19:54:00,80.9,69.8,29.76,South,182,6.0,8.0,69,0.00,,,0.00,Wunderground v.1.15,2013-09-20 00:54:00,
2013-09-19 19:59:00,80.7,69.6,29.77,SSE,152,0.0,10.0,69,0.00,,,0.00,Wunderground v.1.15,2013-09-20 00:59:00,
2013-09-19 20:04:00,80.7,69.6,29.77,SSE,167,6.0,8.0,69,0.00,,,0.00,Wunderground v.1.15,2013-09-20 01:04:00,
2013-09-19 20:09:00,80.7,69.6,29.77,SSE,167,6.0,8.0,69,0.00,,,0.00,Wunderground v.1.15,2013-09-20 01:09:00,
2013-09-19 20:14:00,80.7,69.6,29.77,SSW,210,3.0,7.0,69,0.00,,,0.00,Wunderground v.1.15,2013-09-20 01:14:00,
2013-09-19 20:19:00,80.5,69.4,29.77,SSE,148,0.0,10.0,69,0.00,,,0.00,Wunderground v.1.15,2013-09-20 01:19:00,
2013-09-19 20:24:00,80.5,69.4,29.77,South,169,0.0,9.0,69,0.00,,,0.00,Wunderground v.1.15,2013-09-20 01:24:00,
2013-09-19 20:29:00,80.5,69.0,29.77,South,179,2.0,12.0,68,0.00,,,0.00,Wunderground v.1.15,2013-09-20 01:29:00,
2013-09-19 20:34:00,80.7,69.2,29.77,SSE,158,1.0,8.0,68,0.00,,,0.00,Wunderground v.1.15,2013-09-20 01:34:00,
2013-09-19 20:39:00,80.5,69.0,29.77,South,169,5.0,8.0,68,0.00,,,0.00,Wunderground v.1.15,2013-09-20 01:39:00,
2013-09-19 20:44:00,80.5,68.5,29.76,South,181,0.0,8.0,67,0.00,,,0.00,Wunderground v.1.15,2013-09-20 01:44:00,
2013-09-19 20:49:00,80.3,68.8,29.76,SSE,168,6.0,8.0,68,0.00,,,0.00,Wunderground v.1.15,2013-09-20 01:49:00,
2013-09-19 20:54:00,80.3,68.8,29.76,South,169,6.0,7.0,68,0.00,,,0.00,Wunderground v.1.15,2013-09-20 01:54:00,
2013-09-19 20:59:00,80.3,68.8,29.76,SW,222,0.0,7.0,68,0.00,,,0.00,Wunderground v.1.15,2013-09-20 01:59:00,
2013-09-19 21:04:00,80.3,68.8,29.76,SW,227,2.0,7.0,68,0.00,,,0.00,Wunderground v.1.15,2013-09-20 02:04:00,
2013-09-19 21:09:00,80.3,68.8,29.76,South,176,0.0,7.0,68,0.00,,,0.00,Wunderground v.1.15,2013-09-20 02:09:00,
2013-09-19 21:14:00,80.1,68.6,29.76,SW,226,0.0,7.0,68,0.00,,,0.00,Wunderground v.1.15,2013-09-20 02:14:00,
2013-09-19 21:19:00,80.1,68.6,29.76,SW,224,0.0,7.0,68,0.00,,,0.00,Wunderground v.1.15,2013-09-20 02:19:00,
2013-09-19 21:24:00,79.9,-99.9,29.76,WSW,241,0.0,5.0,255,0.00,,,0.00,Wunderground v.1.15,2013-09-20 02:24:00,
2013-09-19 21:29:00,79.8,69.1,29.77,WNW,287,6.0,7.0,70,0.00,,,0.00,Wunderground v.1.15,2013-09-20 02:29:00,
2013-09-19 21:34:00,79.4,69.2,29.77,NW,308,0.0,6.0,71,0.00,,,0.00,Wunderground v.1.15,2013-09-20 02:34:00,
2013-09-19 21:39:00,79.0,68.8,29.77,West,265,3.0,7.0,71,0.00,,,0.00,Wunderground v.1.15,2013-09-20 02:39:00,
2013-09-19 21:44:00,78.8,68.6,29.78,West,267,3.0,6.0,71,0.00,,,0.00,Wunderground v.1.15,2013-09-20 02:44:00,
2013-09-19 21:49:00,78.6,67.6,29.78,NNE,18,0.0,10.0,69,0.00,,,0.00,Wunderground v.1.15,2013-09-20 02:49:00,
2013-09-19 21:54:00,78.5,65.3,29.78,NW,304,0.0,10.0,64,0.00,,,0.00,Wunderground v.1.15,2013-09-20 02:54:00,
2013-09-19 21:59:00,78.1,64.0,29.79,NNE,24,5.0,13.0,62,0.00,,,0.00,Wunderground v.1.15,2013-09-20 02:59:00,
2013-09-19 22:04:00,77.4,62.9,29.79,NNW,337,2.0,16.0,61,0.00,,,0.00,Wunderground v.1.15,2013-09-20 03:04:00,
2013-09-19 22:09:00,76.8,62.8,29.79,West,281,6.0,18.0,62,0.00,,,0.00,Wunderground v.1.15,2013-09-20 03:09:00,
2013-09-19 22:14:00,76.5,63.4,29.81,WNW,295,3.0,8.0,64,0.00,,,0.00,Wunderground v.1.15,2013-09-20 03:14:00,
2013-09-19 22:19:00,76.0,64.2,29.81,NW,308,3.0,13.0,67,1.31,,,0.02,Wunderground v.1.15,2013-09-20 03:19:00,
2013-09-19 22:25:00,72.0,64.4,29.81,WSW,257,7.0,17.0,77,0.56,,,0.11,Wunderground v.1.15,2013-09-20 03:25:00,
2013-09-19 22:30:00,68.6,65.2,29.81,WNW,288,2.0,6.0,89,1.45,,,0.18,Wunderground v.1.15,2013-09-20 03:30:00,
2013-09-19 22:35:00,67.6,65.5,29.81,NW,326,1.0,6.0,93,0.99,,,0.28,Wunderground v.1.15,2013-09-20 03:35:00,
2013-09-19 22:40:00,67.1,65.9,29.81,North,350,0.0,1.0,96,0.13,,,0.29,Wunderground v.1.15,2013-09-20 03:40:00,
2013-09-19 22:45:00,66.9,66.0,29.83,WNW,284,0.0,5.0,97,0.07,,,0.30,Wunderground v.1.15,2013-09-20 03:45:00,
2013-09-19 22:50:00,66.8,66.2,29.83,NNW,335,2.0,2.0,98,0.20,,,0.32,Wunderground v.1.15,2013-09-20 03:50:00,
2013-09-19 22:55:00,66.8,66.5,29.83,West,280,0.0,5.0,99,0.87,,,0.36,Wunderground v.1.15,2013-09-20 03:55:00,
2013-09-19 23:00:00,66.8,66.5,29.85,WSW,244,7.0,7.0,99,0.31,,,0.38,Wunderground v.1.15,2013-09-20 04:00:00,
2013-09-19 23:01:00,66.8,66.5,29.85,WSW,246,2.0,7.0,99,0.31,,,0.38,Wunderground v.1.15,2013-09-20 04:01:00,
2013-09-19 23:02:00,66.8,66.5,29.85,WNW,282,6.0,7.0,99,0.42,,,0.40,Wunderground v.1.15,2013-09-20 04:02:00,
2013-09-19 23:07:00,66.8,66.5,29.85,West,261,4.0,7.0,99,0.33,,,0.43,Wunderground v.1.15,2013-09-20 04:07:00,
2013-09-19 23:12:00,66.8,66.5,29.85,WNW,301,0.0,3.0,99,0.33,,,0.43,Wunderground v.1.15,2013-09-20 04:12:00,
2013-09-19 23:17:00,66.9,66.9,29.85,West,275,1.0,5.0,100,0.15,,,0.52,Wunderground v.1.15,2013-09-20 04:17:00,
2013-09-19 23:22:00,66.9,66.9,29.85,WNW,282,4.0,11.0,100,0.07,,,0.52,Wunderground v.1.15,2013-09-20 04:22:00,
2013-09-19 23:27:00,66.9,66.9,29.85,WSW,248,5.0,11.0,100,0.07,,,0.53,Wunderground v.1.15,2013-09-20 04:27:00,
2013-09-19 23:33:00,66.9,66.9,29.85,West,270,0.0,6.0,100,0.07,,,0.54,Wunderground v.1.15,2013-09-20 04:33:00,
2013-09-19 23:38:00,67.1,67.1,29.85,West,268,0.0,6.0,100,0.11,,,0.55,Wunderground v.1.15,2013-09-20 04:38:00,
2013-09-19 23:43:00,67.1,67.1,29.85,West,277,2.0,4.0,100,0.10,,,0.55,Wunderground v.1.15,2013-09-20 04:43:00,
2013-09-19 23:47:00,67.1,67.1,29.85,West,277,0.0,4.0,100,0.09,,,0.56,Wunderground v.1.15,2013-09-20 04:47:00,
2013-09-19 23:52:00,67.1,67.1,29.85,WSW,248,0.0,3.0,100,0.08,,,0.57,Wunderground v.1.15,2013-09-20 04:52:00,
2013-09-19 23:57:00,67.1,67.1,29.85,SW,227,2.0,7.0,100,0.12,,,0.58,Wunderground v.1.15,2013-09-20 04:57:00,